< Typhoon 201505 2015 Season Typhoon 201507 >
Typhoon 201506 (NOUL)
General InformationTrack Information on Google MapsDetailed Wind InformationForecast History on Google MapsAccess Analytics MapList of All Images || NewsDisaster Info.WeblogTrackbackTyphoon FrontTwiphoonTyphoon Now!Typhoon ImaginationDisaster Info. XMLResourceGoogle EarthGE AnimationAtom FeedGeoJSON
Detalied Best Track (Time Zone = UTC)
Year Month Day Hour Lat. Long. Pressure (hPa) Wind (kt) Class Image Chart
2015 5 2 06 7.4 144.1 1006 0 2 Image Chart
2015 5 2 12 7.8 143.1 1006 0 2 Image Chart
2015 5 2 18 8.0 142.5 1006 0 2 Image Chart
2015 5 3 00 8.2 142.1 1006 0 2 Image Chart
2015 5 3 06 8.5 141.5 1004 0 2 Image Chart
2015 5 3 12 9.1 141.1 1004 0 2 Image Chart
2015 5 3 18 9.4 140.7 1000 35 3 Image Chart
2015 5 4 00 9.6 140.2 998 35 3 Image Chart
2015 5 4 06 9.6 139.9 996 35 3 Image Chart
2015 5 4 12 9.5 139.6 996 40 3 Image Chart
2015 5 4 18 9.5 139.3 994 40 3 Image Chart
2015 5 5 00 9.4 139.1 992 45 3 Image Chart
2015 5 5 06 9.3 138.8 992 45 3 Image Chart
2015 5 5 12 9.3 138.5 990 50 4 Image Chart
2015 5 5 18 9.3 138.3 985 60 4 Image Chart
2015 5 6 00 9.4 137.6 985 60 4 Image Chart
2015 5 6 06 9.5 136.9 980 65 5 Image Chart
2015 5 6 12 9.8 136.1 970 75 5 Image Chart
2015 5 6 18 10.1 135.2 960 80 5 Image Chart
2015 5 7 00 10.6 134.2 960 80 5 Image Chart
2015 5 7 06 11.3 133.1 960 80 5 Image Chart
2015 5 7 12 11.6 132.0 955 85 5 Image Chart
2015 5 7 18 11.8 131.1 955 85 5 Image Chart
2015 5 8 00 12.1 130.3 955 85 5 Image Chart
2015 5 8 06 12.6 129.2 955 85 5 Image Chart
2015 5 8 12 13.4 128.0 955 85 5 Image Chart
2015 5 8 18 13.7 127.3 955 85 5 Image Chart
2015 5 9 00 14.3 126.4 955 85 5 Image Chart
2015 5 9 06 14.9 125.2 945 90 5 Image Chart
2015 5 9 12 15.4 124.6 945 90 5 Image Chart
2015 5 9 18 16.1 123.9 935 100 5 Image Chart
2015 5 10 00 17.0 123.3 920 110 5 Image Chart
2015 5 10 06 17.8 122.6 920 110 5 Image Chart
2015 5 10 12 18.6 122.4 925 105 5 Image Chart
2015 5 10 18 19.6 122.1 930 100 5 Image Chart
2015 5 11 00 20.6 122.0 945 90 5 Image Chart
2015 5 11 06 21.7 122.2 960 80 5 Image Chart
2015 5 11 09 22.6 123.1 970 75 5 Image Chart
2015 5 11 12 23.4 123.6 975 70 5 Image Chart
2015 5 11 15 24.5 124.6 980 70 5 Image Chart
2015 5 11 18 25.9 125.7 980 65 5 Image Chart
2015 5 11 21 27.0 127.0 980 65 5 Image Chart
2015 5 12 00 28.0 128.4 985 65 5 Image Chart
2015 5 12 03 29.2 130.3 990 60 4 Image Chart
2015 5 12 06 30.4 132.2 994 0 6 Image Chart
2015 5 12 12 34.3 138.0 996 0 6 Image Chart
2015 5 12 18 38.2 142.2 996 0 6 Image Chart
2015 5 13 00 42.6 145.3 994 0 6 Image Chart
2015 5 13 06 44.2 147.9 992 0 6 Image Chart
2015 5 13 12 45.1 150.9 994 0 6 Image Chart
2015 5 13 18 45.6 153.6 994 0 6 Image Chart
2015 5 14 00 46.1 157.2 996 0 6 Image Chart
2015 5 14 06 46.8 160.3 996 0 6 Image Chart
2015 5 14 12 46.8 162.8 994 0 6 Image Chart
2015 5 14 18 47.1 165.8 990 0 6 Image Chart
2015 5 15 00 47.6 168.8 986 0 6 Image Chart
2015 5 15 06 48.3 171.6 986 0 6 Image Chart
2015 5 15 12 49.0 174.4 986 0 6 Image Chart
2015 5 15 18 49.0 176.8 986 0 6 Image Chart
2015 5 16 00 48.7 178.1 986 0 6 Image Chart
Japan Meteorological Agency Best Track Data | Correction Date : 2015-07-02
< Typhoon 201505 2015 Season Typhoon 201507 >

Help